Redington Shores, Florida
Current Conditions -  °F | °C
As of 6:53 PM on Wednesday 22 Oct 2014 (Local Time) from KPIE Reporting Station
Clear Clear  
Wind Chill: 75°   Ceiling: Unl
Heat Index: 75°   Visibility: 10mi
Dew Point: 63°   Wind: 9mph
Humidity: 66%   Direction: 340°NNW
Pressure: 29.94"   Gusts: NA
Location:  27.8164°N, 82.7802°W
Report Text: KPIE 222253Z 34008KT 10SM CLR 24/17 A2994 RMK AO2 SLP138 T02390172
Loading
Personal Weather Stations






























Interactive Weather Map
Tropical Storm Tracking
New forecast layout! Learn more

10-Day Weather Forecast

Advertisements
Track Severe Weather on mobile